createdAt,value
2022-12-15T00:02:19.378Z,99564.28
2022-12-15T00:07:21.441Z,99572.84
2022-12-15T00:12:23.358Z,99589.13
2022-12-15T00:17:25.283Z,99594.69
2022-12-15T00:22:27.179Z,99592.34
2022-12-15T00:27:29.190Z,99584.06
2022-12-15T00:32:31.134Z,99600.47
2022-12-15T00:37:32.931Z,99598.84
2022-12-15T00:42:34.811Z,99596.72
2022-12-15T00:47:36.701Z,99611.03
2022-12-15T00:52:38.545Z,99611.88
2022-12-15T00:57:40.610Z,99609.25
2022-12-15T01:02:42.736Z,99613.53
2022-12-15T01:07:44.834Z,99605.97
2022-12-15T01:12:51.726Z,99628.69
2022-12-15T01:17:53.769Z,99631.72
2022-12-15T01:22:56.005Z,99628.59
2022-12-15T01:27:57.824Z,99635.16
2022-12-15T01:32:59.720Z,99642.78
2022-12-15T01:38:01.646Z,99637.34
2022-12-15T01:43:03.534Z,99629.56
2022-12-15T01:48:07.202Z,99638.91
2022-12-15T01:53:09.713Z,99649.00
2022-12-15T01:58:11.318Z,99643.81
2022-12-15T02:03:13.424Z,99656.25
2022-12-15T02:08:15.308Z,99654.91
2022-12-15T02:13:35.372Z,99658.91
2022-12-15T02:18:37.177Z,99661.28
2022-12-15T02:24:02.309Z,99671.44
2022-12-15T02:29:28.427Z,99676.97
2022-12-15T02:34:48.042Z,99685.13
2022-12-15T02:39:49.876Z,99682.94
2022-12-15T02:45:06.848Z,99686.72
2022-12-15T02:50:23.806Z,99680.75
2022-12-15T02:55:51.154Z,99681.09
2022-12-15T03:00:58.655Z,99682.31
2022-12-15T03:06:00.619Z,99674.69
2022-12-15T03:11:02.514Z,99682.69
2022-12-15T03:16:04.545Z,99677.94
2022-12-15T03:21:06.481Z,99688.22
2022-12-15T03:26:08.362Z,99682.56
2022-12-15T03:31:10.215Z,99688.66
2022-12-15T03:36:12.060Z,99697.34
2022-12-15T03:41:13.968Z,99694.91
2022-12-15T03:46:15.910Z,99696.50
2022-12-15T03:51:17.810Z,99702.41
2022-12-15T03:56:19.694Z,99703.50
2022-12-15T04:01:31.409Z,99705.16
2022-12-15T04:06:33.377Z,99712.28
2022-12-15T04:11:35.175Z,99709.88
2022-12-15T04:16:37.082Z,99714.28
2022-12-15T04:21:39.110Z,99727.06
2022-12-15T04:26:40.924Z,99724.50
2022-12-15T04:31:42.834Z,99730.38
2022-12-15T04:36:45.615Z,99734.66
2022-12-15T04:41:47.502Z,99732.88
2022-12-15T04:46:49.422Z,99740.31
2022-12-15T04:51:51.269Z,99752.22
2022-12-15T04:56:53.101Z,99755.56
2022-12-15T05:01:55.038Z,99763.50
2022-12-15T05:06:56.900Z,99764.03
2022-12-15T05:11:58.684Z,99783.75
2022-12-15T05:17:00.496Z,99766.56
2022-12-15T05:22:02.367Z,99779.47
2022-12-15T05:27:04.211Z,99791.28
2022-12-15T05:32:07.218Z,99779.38
2022-12-15T05:37:08.985Z,99787.03
2022-12-15T05:42:10.775Z,99782.59
2022-12-15T05:47:12.567Z,99791.88
2022-12-15T05:52:14.476Z,99794.78
2022-12-15T05:57:16.253Z,99796.50
2022-12-15T06:02:18.151Z,99800.94
2022-12-15T06:07:20.066Z,99802.25
2022-12-15T06:12:21.884Z,99805.59
2022-12-15T06:17:23.665Z,99799.66
2022-12-15T06:22:25.444Z,99804.72
2022-12-15T06:27:27.181Z,99809.78
2022-12-15T06:32:29.031Z,99821.66
2022-12-15T06:37:30.903Z,99822.22
2022-12-15T06:42:32.723Z,99834.78
2022-12-15T06:47:34.648Z,99843.88
2022-12-15T06:52:36.504Z,99844.66
2022-12-15T06:57:38.297Z,99856.97
2022-12-15T07:02:42.334Z,99859.75
2022-12-15T07:07:44.332Z,99859.88
2022-12-15T07:12:46.072Z,99862.56
2022-12-15T07:17:47.972Z,99871.94
2022-12-15T07:22:52.819Z,99872.47
2022-12-15T07:27:54.667Z,99882.13
2022-12-15T07:32:56.481Z,99880.19
2022-12-15T07:37:58.288Z,99877.25
2022-12-15T07:43:00.079Z,99863.16
2022-12-15T07:48:01.999Z,99864.44
2022-12-15T07:53:03.758Z,99867.03
2022-12-15T07:58:05.579Z,99875.56
2022-12-15T08:03:07.470Z,99873.97
2022-12-15T08:08:15.137Z,99891.84
2022-12-15T08:13:38.101Z,99892.72
2022-12-15T08:18:39.166Z,99887.56
2022-12-15T08:23:41.003Z,99879.91
2022-12-15T08:28:43.048Z,99869.31
2022-12-15T08:33:45.405Z,99870.41
2022-12-15T08:38:47.452Z,99887.47
2022-12-15T08:43:49.748Z,99896.72
2022-12-15T08:48:51.821Z,99894.56
2022-12-15T08:53:54.676Z,99894.50
2022-12-15T08:58:58.077Z,99879.91
2022-12-15T09:03:59.996Z,99893.44
2022-12-15T09:09:04.124Z,99893.91
2022-12-15T09:14:06.400Z,99889.88
2022-12-15T09:19:09.174Z,99893.28
2022-12-15T09:24:16.093Z,99890.13
2022-12-15T09:29:24.183Z,99884.72
2022-12-15T09:34:26.098Z,99874.88
2022-12-15T09:39:27.869Z,99858.25
2022-12-15T09:44:30.350Z,99851.88
2022-12-15T09:49:38.127Z,99844.38
2022-12-15T09:54:40.206Z,99823.16
2022-12-15T10:00:22.101Z,99825.09
2022-12-15T10:06:21.522Z,99806.22
2022-12-15T10:11:40.292Z,99798.50
2022-12-15T10:16:50.786Z,99794.53
2022-12-15T10:21:52.623Z,99792.66
2022-12-15T10:27:11.528Z,99791.31
2022-12-15T10:32:26.586Z,99793.06
2022-12-15T10:37:28.366Z,99794.06
2022-12-15T10:42:30.219Z,99786.38
2022-12-15T10:47:32.230Z,99796.03
2022-12-15T10:52:37.389Z,99794.53
2022-12-15T10:57:39.318Z,99797.19
2022-12-15T11:02:41.494Z,99797.81
2022-12-15T11:07:51.229Z,99791.22
2022-12-15T11:13:15.801Z,99808.31
2022-12-15T11:18:36.191Z,99822.53
2022-12-15T11:23:46.606Z,99829.53
2022-12-15T11:29:10.824Z,99824.72
2022-12-15T11:34:14.624Z,99816.06
2022-12-15T11:39:28.354Z,99800.16
2022-12-15T11:44:44.618Z,99787.66
2022-12-15T11:49:58.393Z,99791.22
2022-12-15T11:55:05.552Z,99779.06
2022-12-15T12:00:13.887Z,99774.16
2022-12-15T12:05:34.258Z,99760.72
2022-12-15T12:10:53.785Z,99756.34
2022-12-15T12:16:01.755Z,99748.28
2022-12-15T12:21:09.394Z,99752.06
2022-12-15T12:26:24.973Z,99735.81
2022-12-15T12:31:47.218Z,99738.63
2022-12-15T12:36:52.873Z,99745.28
2022-12-15T12:42:10.695Z,99719.25
2022-12-15T12:47:24.994Z,99731.16
2022-12-15T12:52:29.636Z,99703.59
2022-12-15T12:57:34.546Z,99707.19
2022-12-15T13:02:36.355Z,99697.84
2022-12-15T13:07:39.350Z,99685.41
2022-12-15T13:12:51.349Z,99691.06
2022-12-15T13:18:19.897Z,99671.47
2022-12-15T13:23:21.648Z,99661.47
2022-12-15T13:28:38.595Z,99657.97
2022-12-15T13:33:49.392Z,99650.81
2022-12-15T13:38:53.052Z,99640.03
2022-12-15T13:43:54.954Z,99628.22
2022-12-15T13:49:19.271Z,99630.16
2022-12-15T13:54:23.512Z,99619.16
2022-12-15T13:59:40.347Z,99619.94
2022-12-15T14:04:42.141Z,99623.09
2022-12-15T14:09:43.973Z,99627.81
2022-12-15T14:14:49.220Z,99616.63
2022-12-15T14:19:51.531Z,99610.47
2022-12-15T14:24:58.532Z,99614.97
2022-12-15T14:30:26.336Z,99591.28
2022-12-15T14:35:30.896Z,99589.63
2022-12-15T14:40:35.453Z,99596.16
2022-12-15T14:45:37.320Z,99592.63
2022-12-15T14:50:39.346Z,99591.84
2022-12-15T14:55:41.570Z,99588.66
2022-12-15T15:06:12.838Z,99580.94
2022-12-15T15:11:20.611Z,99591.06
2022-12-15T15:16:22.427Z,99609.09
2022-12-15T15:21:28.942Z,99594.16
2022-12-15T15:26:31.012Z,99592.44
2022-12-15T15:31:41.535Z,99590.72
2022-12-15T15:36:43.782Z,99593.50
2022-12-15T15:41:45.628Z,99580.72
2022-12-15T15:46:51.436Z,99573.41
2022-12-15T15:51:55.567Z,99551.94
2022-12-15T15:56:57.402Z,99553.28
2022-12-15T16:01:59.373Z,99536.06
2022-12-15T16:07:01.284Z,99513.25
2022-12-15T16:12:03.144Z,99507.50
2022-12-15T16:17:08.943Z,99497.84
2022-12-15T16:22:19.080Z,99483.94
2022-12-15T16:27:20.890Z,99495.44
2022-12-15T16:32:22.719Z,99484.41
2022-12-15T16:37:26.250Z,99484.19
2022-12-15T16:42:28.143Z,99471.28
2022-12-15T16:47:30.025Z,99472.03
2022-12-15T16:52:31.946Z,99443.63
2022-12-15T16:57:33.779Z,99452.66
2022-12-15T17:02:36.099Z,99433.94
2022-12-15T17:07:37.873Z,99426.06
2022-12-15T17:12:39.799Z,99418.63
2022-12-15T17:17:41.602Z,99417.84
2022-12-15T17:22:44.887Z,99407.91
2022-12-15T17:27:48.221Z,99383.69
2022-12-15T17:32:50.257Z,99367.34
2022-12-15T17:37:52.260Z,99328.75
2022-12-15T17:42:54.560Z,99325.81
2022-12-15T17:47:56.322Z,99307.84
2022-12-15T17:52:58.298Z,99311.22
2022-12-15T17:58:00.131Z,99282.31
2022-12-15T18:03:02.203Z,99270.81
2022-12-15T18:08:12.423Z,99266.94
2022-12-15T18:13:18.001Z,99266.69
2022-12-15T18:18:20.520Z,99266.00
2022-12-15T18:23:24.449Z,99254.75
2022-12-15T18:28:30.755Z,99245.63
2022-12-15T18:33:32.884Z,99233.47
2022-12-15T18:38:34.744Z,99248.47
2022-12-15T18:43:36.601Z,99226.47
2022-12-15T18:48:38.529Z,99241.16
2022-12-15T18:53:40.353Z,99231.09
2022-12-15T18:58:42.270Z,99222.19
2022-12-15T19:03:44.233Z,99223.31
2022-12-15T19:08:46.228Z,99210.81
2022-12-15T19:13:48.091Z,99206.03
2022-12-15T19:18:49.949Z,99189.41
2022-12-15T19:23:51.738Z,99186.88
2022-12-15T19:28:53.813Z,99173.34
2022-12-15T19:33:55.689Z,99165.09
2022-12-15T19:38:57.590Z,99158.34
2022-12-15T19:43:59.550Z,99142.28
2022-12-15T19:49:01.491Z,99156.25
2022-12-15T19:54:03.755Z,99129.91
2022-12-15T19:59:05.560Z,99131.59
2022-12-15T20:04:07.385Z,99126.44
2022-12-15T20:09:11.020Z,99127.13
2022-12-15T20:14:14.000Z,99122.09
2022-12-15T20:19:16.122Z,99114.47
2022-12-15T20:24:18.577Z,99110.34
2022-12-15T20:29:24.765Z,99109.50
2022-12-15T20:34:26.623Z,99094.25
2022-12-15T20:39:28.790Z,99089.97
2022-12-15T20:44:30.554Z,99098.00
2022-12-15T20:49:32.396Z,99092.91
2022-12-15T20:54:34.331Z,99080.03
2022-12-15T20:59:36.213Z,99087.88
2022-12-15T21:04:38.112Z,99076.13
2022-12-15T21:09:40.186Z,99071.84
2022-12-15T21:14:42.077Z,99061.63
2022-12-15T21:19:44.066Z,99070.97
2022-12-15T21:24:45.907Z,99057.13
2022-12-15T21:29:52.272Z,99051.34
2022-12-15T21:34:54.968Z,99045.47
2022-12-15T21:39:56.964Z,99040.31
2022-12-15T21:44:58.868Z,99023.97
2022-12-15T21:50:00.778Z,99044.66
2022-12-15T21:55:02.733Z,99020.53
2022-12-15T22:00:10.796Z,99021.66
2022-12-15T22:05:17.599Z,99018.25
2022-12-15T22:10:19.454Z,99020.91
2022-12-15T22:15:22.003Z,99006.44
2022-12-15T22:20:24.091Z,99006.22
2022-12-15T22:25:26.050Z,99019.13
2022-12-15T22:30:28.006Z,99014.06
2022-12-15T22:35:30.051Z,99009.84
2022-12-15T22:40:31.940Z,99012.34
2022-12-15T22:45:36.083Z,99021.00
2022-12-15T22:50:41.430Z,99018.56
2022-12-15T22:55:47.024Z,99016.09
2022-12-15T23:00:48.882Z,99014.41
2022-12-15T23:05:51.063Z,99008.22
2022-12-15T23:10:53.576Z,99015.13
2022-12-15T23:15:56.658Z,99009.09
2022-12-15T23:20:58.516Z,99010.94
2022-12-15T23:26:00.411Z,99002.31
2022-12-15T23:31:02.292Z,99000.63
2022-12-15T23:36:04.640Z,99003.28
2022-12-15T23:41:06.519Z,99000.94
2022-12-15T23:46:08.512Z,99002.38
2022-12-15T23:51:14.842Z,99008.69
2022-12-15T23:56:17.659Z,98991.53
